Greenview, CA (96037)

11:01 PM PST on November 26, 2014 (GMT -0800)
KCAETNA3 | Change Station
CLOSE
Current Station
Personal Weather Station
Location: Island Rd, Scott Valley, CA
Elevation: 2728 ft
Nearby Weather Stations

Elev 2728 ft 41.55 °N, 122.85 °W | Updated 1 second ago

Mostly Cloudy
Mostly Cloudy
36.8 °F
Feels Like 37 °F
N
0.0
Wind Variable Wind from NNW
Gusts 0.0 mph

Today
High -- | Low -- °F
--% Chance of Precip.
Yesterday
High -- | Low -- °F
Precip. -- in
7:13 AM 4:44 PM
Waxing Crescent, 26% visible
Pressure 30.29 in
Visibility 0.5 miles
Clouds
Windchill 37 °F
Dew Point 37 °F
Humidity 100%
Rainfall 0.01 in
Snow Depth Not available.
UV Not available.
Pollen .80 out of 12
Air Quality Not available.
Flu Activity Not available.
METAR KSIY 270653Z AUTO 02007KT 1/2SM -SN FG VV001 00/00 A3021 RMK AO2 SNB53 SLP255 P0000 T00000000

More Conditions Fewer Conditions

Pressure 30.29 in
Visibility 0.5 miles
Clouds
Windchill 37 °F
Dew Point 37 °F
Humidity 100%
Rainfall 0.01 in
Snow Depth Not available.
UV Not available.
Pollen .80 out of 12
Air Quality Not available.
Flu Activity Not available.
METAR KSIY 270653Z AUTO 02007KT 1/2SM -SN FG VV001 00/00 A3021 RMK AO2 SNB53 SLP255 P0000 T00000000

More Conditions Fewer Conditions

10-Day Weather Forecast

Almanac

Astronomy

Nov. 26, 2014 Rise Set
Actual Time
Civil Twilight
Nautical Twilight
Astronomical Twilight
Moon
Length of Visible Light
Length of Day
Tomorrow will be .
, % of the Moon is Illuminated

Today's Extremes

State Highs State Lows

Community

WunderPhotos

Upload Photos

1,773,966 photos uploaded!

WunderBlogs® & News

Nearby

Air Quality

  Air Quality AQ Index Pollutant
Not available.

Snow Depth

Station Depth Elevation

Earthquake Activity

City Distance Mag. Time & Date
Minimum magnitude displayed is 2.5.

Coastal Water Temperatures

Place Temperature

Nearby Weather Stations